createdAt,value
2022-12-27T00:06:57.455Z,6.06
2022-12-27T00:08:38.157Z,6.36
2022-12-27T00:11:59.839Z,6.33
2022-12-27T00:19:17.532Z,5.85
2022-12-27T00:22:44.589Z,6.35
2022-12-27T00:26:08.196Z,6.29
2022-12-27T00:29:22.663Z,6.07
2022-12-27T00:32:43.524Z,6.23
2022-12-27T00:35:55.530Z,6.21
2022-12-27T00:39:14.930Z,6.15
2022-12-27T00:42:27.467Z,5.99
2022-12-27T00:45:38.740Z,6.24
2022-12-27T00:49:03.828Z,6.06
2022-12-27T00:52:21.210Z,6.27
2022-12-27T00:55:48.336Z,6.19
2022-12-27T00:59:10.384Z,6.54
2022-12-27T01:02:25.257Z,6.49
2022-12-27T01:05:57.979Z,6.00
2022-12-27T01:09:26.744Z,6.09
2022-12-27T01:12:59.260Z,6.55
2022-12-27T01:16:22.239Z,6.56
2022-12-27T01:19:49.737Z,6.13
2022-12-27T01:23:13.425Z,6.56
2022-12-27T01:26:35.132Z,6.53
2022-12-27T01:29:49.633Z,6.64
2022-12-27T01:38:05.381Z,6.27
2022-12-27T01:45:34.343Z,6.88
2022-12-27T01:48:45.738Z,7.02
2022-12-27T01:52:01.832Z,7.08
2022-12-27T01:55:24.215Z,7.12
2022-12-27T01:58:53.287Z,7.15
2022-12-27T02:01:57.746Z,6.95
2022-12-27T02:05:19.409Z,7.12
2022-12-27T02:09:01.249Z,7.32
2022-12-27T02:12:40.229Z,7.30
2022-12-27T02:15:49.165Z,7.34
2022-12-27T02:19:18.776Z,6.92
2022-12-27T02:23:07.514Z,7.29
2022-12-27T02:26:40.165Z,7.22
2022-12-27T02:30:03.403Z,7.13
2022-12-27T02:37:28.180Z,7.05
2022-12-27T02:40:33.586Z,6.62
2022-12-27T02:48:00.168Z,6.72
2022-12-27T02:51:28.946Z,6.81
2022-12-27T02:55:27.075Z,7.06
2022-12-27T02:58:54.639Z,7.12
2022-12-27T03:02:29.375Z,6.74
2022-12-27T03:06:13.865Z,6.71
2022-12-27T03:09:44.516Z,7.10
2022-12-27T03:13:17.176Z,7.10
2022-12-27T03:16:50.181Z,7.10
2022-12-27T03:20:20.231Z,7.15
2022-12-27T03:24:15.346Z,6.92
2022-12-27T03:27:43.720Z,6.95
2022-12-27T03:31:06.187Z,6.97
2022-12-27T03:34:45.827Z,7.14
2022-12-27T03:38:20.139Z,6.99
2022-12-27T03:41:38.207Z,6.77
2022-12-27T03:44:47.266Z,6.85
2022-12-27T03:48:05.748Z,6.79
2022-12-27T03:51:17.177Z,6.79
2022-12-27T03:58:09.173Z,6.55
2022-12-27T04:01:25.328Z,6.22
2022-12-27T04:04:44.361Z,6.73
2022-12-27T04:08:04.161Z,7.10
2022-12-27T04:11:08.946Z,6.93
2022-12-27T04:14:46.410Z,6.61
2022-12-27T04:18:15.316Z,6.87
2022-12-27T04:21:33.229Z,6.47
2022-12-27T04:24:37.917Z,6.44
2022-12-27T04:27:52.189Z,6.16
2022-12-27T04:30:54.116Z,6.04
2022-12-27T04:38:20.953Z,6.13
2022-12-27T04:41:22.958Z,6.36
2022-12-27T04:48:15.822Z,6.38
2022-12-27T04:51:26.241Z,6.45
2022-12-27T04:55:00.227Z,6.46
2022-12-27T04:58:19.328Z,6.40
2022-12-27T05:01:28.755Z,6.62
2022-12-27T05:08:46.233Z,7.06
2022-12-27T05:11:56.768Z,7.25
2022-12-27T05:15:17.051Z,7.77
2022-12-27T05:18:33.568Z,8.13
2022-12-27T05:21:45.234Z,8.21
2022-12-27T05:25:01.203Z,8.16
2022-12-27T05:28:18.560Z,7.75
2022-12-27T05:31:35.283Z,8.23
2022-12-27T05:38:23.286Z,8.29
2022-12-27T05:41:25.269Z,8.24
2022-12-27T05:44:52.701Z,7.99
2022-12-27T05:47:58.763Z,8.02
2022-12-27T05:51:18.204Z,7.75
2022-12-27T05:57:52.290Z,8.16
2022-12-27T06:01:10.698Z,8.22
2022-12-27T06:04:21.604Z,7.95
2022-12-27T06:07:53.766Z,7.98
2022-12-27T06:11:24.185Z,7.45
2022-12-27T06:14:55.603Z,7.14
2022-12-27T06:18:16.225Z,7.17
2022-12-27T06:21:20.746Z,7.41
2022-12-27T06:28:07.448Z,7.19
2022-12-27T06:31:16.235Z,7.63
2022-12-27T06:38:00.299Z,7.90
2022-12-27T06:41:07.545Z,7.77
2022-12-27T06:48:14.294Z,7.75
2022-12-27T06:51:25.694Z,7.99
2022-12-27T06:58:24.197Z,7.93
2022-12-27T07:01:34.634Z,7.80
2022-12-27T07:04:55.515Z,8.03
2022-12-27T07:08:32.211Z,7.93
2022-12-27T07:11:40.958Z,8.16
2022-12-27T07:15:17.379Z,8.73
2022-12-27T07:18:33.708Z,8.84
2022-12-27T07:21:53.416Z,8.82
2022-12-27T07:25:06.329Z,8.54
2022-12-27T07:28:14.838Z,8.90
2022-12-27T07:31:37.350Z,8.62
2022-12-27T07:38:27.220Z,9.13
2022-12-27T07:41:50.781Z,9.07
2022-12-27T07:45:06.318Z,9.21
2022-12-27T07:48:24.291Z,9.25
2022-12-27T07:51:34.453Z,9.35
2022-12-27T07:55:09.859Z,9.33
2022-12-27T07:58:24.281Z,9.40
2022-12-27T08:01:28.295Z,9.43
2022-12-27T08:05:25.884Z,9.42
2022-12-27T08:08:49.293Z,9.28
2022-12-27T08:12:07.179Z,9.56
2022-12-27T08:15:22.359Z,9.48
2022-12-27T08:18:37.515Z,9.92
2022-12-27T08:25:48.817Z,9.09
2022-12-27T08:29:05.885Z,9.72
2022-12-27T08:32:18.195Z,9.24
2022-12-27T08:35:51.564Z,9.58
2022-12-27T08:39:17.379Z,9.56
2022-12-27T08:42:34.900Z,8.98
2022-12-27T08:45:52.335Z,9.21
2022-12-27T08:49:33.697Z,9.33
2022-12-27T08:52:36.073Z,9.42
2022-12-27T08:56:03.600Z,9.26
2022-12-27T08:59:51.743Z,8.80
2022-12-27T09:11:32.371Z,9.45
2022-12-27T09:26:47.568Z,9.21
2022-12-27T09:30:38.349Z,9.18
2022-12-27T09:38:44.482Z,9.22
2022-12-27T09:50:27.598Z,9.20
2022-12-27T09:57:59.757Z,9.31
2022-12-27T10:01:46.752Z,9.52
2022-12-27T10:09:42.139Z,9.05
2022-12-27T10:13:18.237Z,8.79
2022-12-27T10:17:21.808Z,8.82
2022-12-27T10:21:07.851Z,8.69
2022-12-27T10:25:18.396Z,8.73
2022-12-27T10:29:11.774Z,8.55
2022-12-27T10:33:16.956Z,8.82
2022-12-27T10:36:37.050Z,8.26
2022-12-27T10:47:58.379Z,8.66
2022-12-27T10:51:16.282Z,8.63
2022-12-27T11:02:33.334Z,8.44
2022-12-27T11:06:27.126Z,7.99
2022-12-27T11:09:54.376Z,8.22
2022-12-27T11:18:35.427Z,8.16
2022-12-27T11:42:49.931Z,7.94
2022-12-27T11:46:37.526Z,7.50
2022-12-27T11:50:08.546Z,7.76
2022-12-27T11:58:32.865Z,7.68
2022-12-27T12:02:18.481Z,7.56
2022-12-27T12:06:27.801Z,7.19
2022-12-27T12:10:17.379Z,7.55
2022-12-27T12:18:25.675Z,7.49
2022-12-27T13:19:45.853Z,7.08
2022-12-27T14:09:14.688Z,6.39
2022-12-27T14:48:05.799Z,5.83
2022-12-27T14:52:51.253Z,5.36
2022-12-27T15:01:09.516Z,5.56
2022-12-27T15:09:22.854Z,5.42
2022-12-27T15:21:21.359Z,5.23
2022-12-27T15:29:27.346Z,4.92
2022-12-27T15:33:00.326Z,4.81
2022-12-27T15:36:23.360Z,4.95
2022-12-27T15:39:54.364Z,4.47
2022-12-27T15:47:56.473Z,4.74
2022-12-27T15:51:42.407Z,4.99
2022-12-27T15:55:29.775Z,4.52
2022-12-27T15:59:22.421Z,5.00
2022-12-27T16:02:55.807Z,4.94
2022-12-27T16:06:12.615Z,4.99
2022-12-27T16:09:47.400Z,4.98
2022-12-27T16:21:51.843Z,4.86
2022-12-27T16:25:45.567Z,4.65
2022-12-27T16:29:28.685Z,4.72
2022-12-27T16:33:00.036Z,4.70
2022-12-27T16:37:13.453Z,4.68
2022-12-27T16:40:51.504Z,4.67
2022-12-27T16:48:48.592Z,4.68
2022-12-27T16:52:59.316Z,4.73
2022-12-27T17:12:32.067Z,4.29
2022-12-27T17:16:35.931Z,4.65
2022-12-27T17:20:28.418Z,4.19
2022-12-27T17:27:28.913Z,4.73
2022-12-27T17:31:15.225Z,4.72
2022-12-27T17:35:08.313Z,4.71
2022-12-27T17:38:56.537Z,4.20
2022-12-27T17:42:20.753Z,4.62
2022-12-27T17:45:54.422Z,4.49
2022-12-27T17:49:07.917Z,4.58
2022-12-27T17:52:25.455Z,4.63
2022-12-27T17:55:28.892Z,4.58
2022-12-27T17:58:45.415Z,4.09
2022-12-27T18:02:19.496Z,4.48
2022-12-27T18:05:33.064Z,4.31
2022-12-27T18:08:45.288Z,4.54
2022-12-27T18:11:54.095Z,4.03
2022-12-27T18:15:27.383Z,4.54
2022-12-27T18:18:34.543Z,4.27
2022-12-27T18:22:35.415Z,4.24
2022-12-27T18:37:45.545Z,3.45
2022-12-27T19:21:22.662Z,3.46
2022-12-27T19:32:46.322Z,3.28
2022-12-27T19:36:02.388Z,2.78
2022-12-27T19:48:03.390Z,3.19
2022-12-27T19:51:13.385Z,3.16
2022-12-27T19:55:11.402Z,3.14
2022-12-27T19:58:23.789Z,3.11
2022-12-27T20:01:38.507Z,2.84
2022-12-27T20:05:06.577Z,2.70
2022-12-27T20:19:18.419Z,2.55
2022-12-27T20:22:38.857Z,2.01
2022-12-27T20:25:55.358Z,1.96
2022-12-27T20:29:16.190Z,1.88
2022-12-27T20:36:25.696Z,2.21
2022-12-27T20:39:44.543Z,2.10
2022-12-27T20:42:55.498Z,2.10
2022-12-27T20:46:10.583Z,2.24
2022-12-27T20:49:24.121Z,2.02
2022-12-27T20:52:38.399Z,2.50
2022-12-27T21:00:13.368Z,1.83
2022-12-27T21:07:31.500Z,2.12
2022-12-27T21:10:49.361Z,1.96
2022-12-27T21:21:52.351Z,2.01
2022-12-27T21:28:47.836Z,2.11
2022-12-27T21:32:03.805Z,1.95
2022-12-27T21:35:13.374Z,1.30
2022-12-27T21:38:28.421Z,1.78
2022-12-27T21:41:47.422Z,1.61
2022-12-27T21:45:08.734Z,1.61
2022-12-27T21:48:23.407Z,1.87
2022-12-27T21:51:44.110Z,1.52
2022-12-27T21:55:16.427Z,1.71
2022-12-27T21:58:44.241Z,1.84
2022-12-27T22:01:55.434Z,1.57
2022-12-27T22:05:12.831Z,1.88
2022-12-27T22:08:22.369Z,1.80
2022-12-27T22:11:40.746Z,1.76
2022-12-27T22:15:22.486Z,1.72
2022-12-27T22:19:18.494Z,1.79
2022-12-27T22:22:36.455Z,1.84
2022-12-27T22:25:53.406Z,1.87
2022-12-27T22:29:15.507Z,1.39
2022-12-27T22:32:17.448Z,1.83
2022-12-27T22:35:32.418Z,1.64
2022-12-27T22:38:37.675Z,1.79
2022-12-27T22:41:54.389Z,1.37
2022-12-27T22:45:30.394Z,1.88
2022-12-27T22:48:49.437Z,1.88
2022-12-27T22:51:58.503Z,1.39
2022-12-27T22:55:30.480Z,1.86
2022-12-27T23:02:05.483Z,1.69
2022-12-27T23:05:20.523Z,1.60
2022-12-27T23:08:30.487Z,1.65
2022-12-27T23:11:50.477Z,1.66
2022-12-27T23:15:10.355Z,1.60
2022-12-27T23:18:25.688Z,1.63
2022-12-27T23:21:41.032Z,1.59
2022-12-27T23:25:32.560Z,1.64
2022-12-27T23:29:02.886Z,1.26
2022-12-27T23:32:09.707Z,1.73
2022-12-27T23:35:24.356Z,1.40
2022-12-27T23:38:38.472Z,1.57
2022-12-27T23:41:47.344Z,1.49
2022-12-27T23:45:31.009Z,1.14
2022-12-27T23:48:45.683Z,1.37
2022-12-27T23:52:00.426Z,1.47
2022-12-27T23:55:12.443Z,1.47
2022-12-27T23:58:27.420Z,1.41
